Time;durP1;ratioP1;P1;durP2;ratioP2;P2;SDS_P1;SDS_P2;PMS_P1;PMS_P2;Temp;Humidity;BMP_temperature;BMP_pressure;BME280_temperature;BME280_humidity;BME280_pressure;Samples;Min_cycle;Max_cycle;Signal;HPM_P1;HPM_P2
2023/09/06 00:01:57;;;;;;;1.52;1.42;;;20.60;86.60;;;;;;4966440;28;20070;-80
2023/09/06 00:04:25;;;;;;;1.10;1.05;;;20.70;86.10;;;;;;4969653;28;20046;-80
2023/09/06 00:06:52;;;;;;;6.20;1.80;;;20.70;85.90;;;;;;4975664;28;20506;-80
2023/09/06 00:09:18;;;;;;;1.70;1.40;;;20.60;85.10;;;;;;4953771;28;20507;-80
2023/09/06 00:11:43;;;;;;;1.95;1.48;;;20.40;86.20;;;;;;4971185;28;20031;-80
2023/09/06 00:14:09;;;;;;;2.53;1.80;;;20.40;87.00;;;;;;4953487;28;20045;-80
2023/09/06 00:16:34;;;;;;;3.33;1.65;;;20.30;87.90;;;;;;4969950;28;20577;-79
2023/09/06 00:19:00;;;;;;;2.03;1.33;;;20.10;88.70;;;;;;4969575;28;20042;-80
2023/09/06 00:21:27;;;;;;;3.95;1.73;;;20.00;90.00;;;;;;4972616;28;20039;-80
2023/09/06 00:23:52;;;;;;;2.35;1.42;;;20.00;88.10;;;;;;4959600;28;20094;-79
2023/09/06 00:26:18;;;;;;;3.70;1.77;;;19.90;88.20;;;;;;4952232;28;20046;-79
2023/09/06 00:28:45;;;;;;;3.03;1.65;;;19.90;88.50;;;;;;4970360;28;20030;-80
2023/09/06 00:31:11;;;;;;;2.20;1.67;;;19.70;89.70;;;;;;4970301;28;20517;-79
2023/09/06 00:33:36;;;;;;;2.67;1.75;;;19.70;89.70;;;;;;4970571;28;20031;-80
2023/09/06 00:36:03;;;;;;;3.03;1.67;;;19.70;89.30;;;;;;4961706;28;20046;-80
2023/09/06 00:38:29;;;;;;;3.92;2.03;;;19.50;90.10;;;;;;4972463;28;20085;-81
2023/09/06 00:40:54;;;;;;;2.38;1.60;;;19.60;89.90;;;;;;4953330;28;20554;-79
2023/09/06 00:43:20;;;;;;;2.28;1.70;;;19.50;90.30;;;;;;4959341;28;20442;-79
2023/09/06 00:45:47;;;;;;;3.55;1.50;;;19.50;90.50;;;;;;4973921;28;20047;-79
2023/09/06 00:48:26;;;;;;;4.40;1.65;;;19.50;89.80;;;;;;4973428;28;20041;-80
2023/09/06 00:50:55;;;;;;;3.65;2.00;;;19.30;91.50;;;;;;4952993;28;20039;-80
2023/09/06 00:53:22;;;;;;;4.07;1.77;;;19.20;89.90;;;;;;4951807;28;20039;-80
2023/09/06 00:55:48;;;;;;;2.83;1.88;;;19.10;91.60;;;;;;4970024;28;20073;-79
2023/09/06 00:58:15;;;;;;;4.45;1.52;;;19.00;91.80;;;;;;4970464;28;20038;-80
2023/09/06 01:00:42;;;;;;;2.10;1.90;;;19.20;91.30;;;;;;4971774;28;20696;-80
2023/09/06 01:03:08;;;;;;;3.58;2.20;;;19.00;90.80;;;;;;4956124;28;20101;-79
2023/09/06 01:05:41;;;;;;;7.35;2.42;;;19.00;90.60;;;;;;4971422;28;20102;-79
2023/09/06 01:08:08;;;;;;;3.90;2.25;;;18.90;91.30;;;;;;4949873;28;20035;-80
2023/09/06 01:10:36;;;;;;;2.30;2.08;;;18.80;91.60;;;;;;4971436;28;20037;-80
2023/09/06 01:13:02;;;;;;;5.53;2.75;;;18.90;90.60;;;;;;4971466;28;20035;-80
2023/09/06 01:15:27;;;;;;;3.13;2.10;;;18.60;91.00;;;;;;4970337;28;20054;-79
2023/09/06 01:17:53;;;;;;;3.72;2.47;;;18.60;91.30;;;;;;4975348;28;20069;-80
2023/09/06 01:20:26;;;;;;;3.15;2.65;;;18.50;90.90;;;;;;4954536;28;20057;-80
2023/09/06 01:23:11;;;;;;;4.32;2.70;;;18.40;91.70;;;;;;4951705;28;20054;-79
2023/09/06 01:25:36;;;;;;;3.13;2.30;;;18.40;92.70;;;;;;4972148;28;20483;-80
2023/09/06 01:28:02;;;;;;;3.50;2.30;;;18.50;91.80;;;;;;4969447;28;20062;-80
2023/09/06 01:30:29;;;;;;;3.63;2.65;;;18.60;92.00;;;;;;4971763;28;20041;-79
2023/09/06 01:32:55;;;;;;;3.70;2.30;;;18.30;92.10;;;;;;4975359;28;20089;-80
2023/09/06 01:35:20;;;;;;;5.82;2.35;;;18.30;91.80;;;;;;4968452;28;20109;-79
2023/09/06 01:37:50;;;;;;;3.83;2.20;;;18.10;92.10;;;;;;4966387;28;20022;-79
2023/09/06 01:40:17;;;;;;;4.90;2.25;;;18.10;92.40;;;;;;4956606;28;20034;-79
2023/09/06 01:42:45;;;;;;;3.80;2.70;;;18.00;93.70;;;;;;4972142;28;20512;-78
2023/09/06 01:45:11;;;;;;;4.30;2.90;;;18.00;92.70;;;;;;4970332;28;20038;-79
2023/09/06 01:47:36;;;;;;;3.65;2.88;;;17.90;92.40;;;;;;4967175;28;20034;-79
2023/09/06 01:50:04;;;;;;;4.40;2.80;;;18.00;93.60;;;;;;4958768;28;20798;-79
2023/09/06 01:52:29;;;;;;;5.60;3.13;;;18.00;94.50;;;;;;4943553;28;20045;-79
2023/09/06 01:54:55;;;;;;;2.92;2.58;;;17.80;92.80;;;;;;4967892;28;20418;-79
2023/09/06 01:57:21;;;;;;;6.10;3.47;;;18.00;92.20;;;;;;4969270;28;20032;-79
2023/09/06 01:59:50;;;;;;;3.50;2.80;;;18.10;91.70;;;;;;4971772;28;20038;-79
2023/09/06 02:02:16;;;;;;;5.75;2.90;;;17.90;92.70;;;;;;4968737;28;20030;-79
2023/09/06 02:04:42;;;;;;;4.05;2.60;;;17.90;92.20;;;;;;4967107;28;20035;-80
2023/09/06 02:07:07;;;;;;;2.67;2.35;;;17.80;92.30;;;;;;4951738;28;20384;-79
2023/09/06 02:09:33;;;;;;;3.53;2.17;;;17.70;91.80;;;;;;4968314;28;20053;-80
2023/09/06 02:11:59;;;;;;;7.07;3.05;;;17.80;91.80;;;;;;4950712;28;20189;-79
2023/09/06 02:14:25;;;;;;;3.00;2.70;;;17.60;95.40;;;;;;4986688;28;20506;-79
2023/09/06 02:16:50;;;;;;;8.93;3.13;;;17.50;93.50;;;;;;4971405;28;20069;-79
2023/09/06 02:19:16;;;;;;;7.70;3.78;;;17.50;92.70;;;;;;4969700;28;20030;-79
2023/09/06 02:21:42;;;;;;;8.45;3.83;;;17.40;94.00;;;;;;4969258;28;20094;-79
2023/09/06 02:24:08;;;;;;;10.77;6.45;;;17.50;92.90;;;;;;4951425;28;20027;-79
2023/09/06 02:26:34;;;;;;;9.20;5.13;;;17.30;93.50;;;;;;4973207;28;20035;-79
2023/09/06 02:29:00;;;;;;;7.88;4.85;;;17.50;94.60;;;;;;4971923;28;20502;-79
2023/09/06 02:31:26;;;;;;;5.18;3.85;;;17.50;94.60;;;;;;4970437;28;20034;-79
2023/09/06 02:33:51;;;;;;;6.22;3.90;;;17.20;94.50;;;;;;4967310;28;20035;-79
2023/09/06 02:36:17;;;;;;;5.90;3.40;;;17.30;92.80;;;;;;4970200;28;20026;-79
2023/09/06 02:38:42;;;;;;;6.20;4.03;;;17.20;93.10;;;;;;4952615;28;20638;-79
2023/09/06 02:41:09;;;;;;;8.75;3.75;;;17.20;93.50;;;;;;4949743;28;20038;-79
2023/09/06 02:43:35;;;;;;;8.70;4.85;;;17.30;93.00;;;;;;4967760;28;20035;-79
2023/09/06 02:46:03;;;;;;;8.63;4.30;;;17.00;93.90;;;;;;4967402;28;20046;-78
2023/09/06 02:48:29;;;;;;;9.10;4.45;;;17.00;95.30;;;;;;4968082;28;20126;-78
2023/09/06 02:50:56;;;;;;;6.70;4.72;;;16.90;97.00;;;;;;4967965;28;20110;-79
2023/09/06 02:53:22;;;;;;;6.82;4.18;;;16.90;94.70;;;;;;4952138;28;20427;-79
2023/09/06 02:55:51;;;;;;;4.70;3.97;;;16.80;97.60;;;;;;4972871;28;20386;-79
2023/09/06 02:58:27;;;;;;;8.25;4.55;;;17.00;93.80;;;;;;4971468;28;20502;-78
2023/09/06 03:00:58;;;;;;;8.07;4.65;;;16.90;95.00;;;;;;4980124;28;20041;-78
2023/09/06 03:03:27;;;;;;;8.52;4.22;;;16.70;96.00;;;;;;4970450;28;20062;-79
2023/09/06 03:05:56;;;;;;;8.55;4.90;;;16.80;94.70;;;;;;4973147;28;20034;-79
2023/09/06 03:08:25;;;;;;;8.18;4.95;;;16.80;95.50;;;;;;4952580;28;20069;-79
2023/09/06 03:10:52;;;;;;;10.18;4.63;;;16.70;94.80;;;;;;4981987;28;20050;-79
2023/09/06 03:13:20;;;;;;;5.65;3.65;;;16.60;95.00;;;;;;4969948;28;20034;-78
2023/09/06 03:15:45;;;;;;;5.40;2.75;;;16.70;95.20;;;;;;4953615;28;20030;-78
2023/09/06 03:18:11;;;;;;;4.43;2.85;;;16.50;94.70;;;;;;4968721;28;20085;-78
2023/09/06 03:20:43;;;;;;;3.05;2.67;;;16.50;95.10;;;;;;4968260;28;20041;-79
2023/09/06 03:23:29;;;;;;;2.97;2.65;;;16.40;96.60;;;;;;4967588;28;20050;-78
2023/09/06 03:25:55;;;;;;;6.00;2.15;;;16.20;95.50;;;;;;4970691;28;20042;-79
2023/09/06 03:28:21;;;;;;;3.50;2.78;;;16.30;96.10;;;;;;4971748;28;20710;-79
2023/09/06 03:30:49;;;;;;;4.53;2.85;;;16.30;95.40;;;;;;4970407;28;20077;-78
2023/09/06 03:33:15;;;;;;;4.03;3.03;;;16.20;95.20;;;;;;4972717;28;20073;-78
2023/09/06 03:35:45;;;;;;;5.18;2.80;;;16.20;95.40;;;;;;4968487;28;20454;-78
2023/09/06 03:38:10;;;;;;;3.25;2.70;;;16.20;95.60;;;;;;4971444;28;20399;-78
2023/09/06 03:40:36;;;;;;;3.53;2.45;;;16.20;96.20;;;;;;4970628;28;20034;-78
2023/09/06 03:43:05;;;;;;;5.03;2.80;;;16.10;95.70;;;;;;4970785;28;20031;-78
2023/09/06 03:45:32;;;;;;;2.97;2.33;;;16.10;95.50;;;;;;4967692;28;20043;-78
2023/09/06 03:47:57;;;;;;;5.00;3.13;;;16.20;95.20;;;;;;4970526;28;20096;-78
2023/09/06 03:50:26;;;;;;;4.60;2.47;;;16.10;95.00;;;;;;4972157;28;20019;-78
2023/09/06 03:52:51;;;;;;;4.20;3.03;;;16.00;95.40;;;;;;4971887;28;20143;-79
2023/09/06 03:55:17;;;;;;;10.52;3.20;;;15.90;96.20;;;;;;4953809;28;20034;-79
2023/09/06 03:57:43;;;;;;;4.07;3.20;;;15.90;95.30;;;;;;4971394;28;20169;-78
2023/09/06 04:00:20;;;;;;;5.57;2.78;;;15.80;96.10;;;;;;4979805;28;20059;-79
2023/09/06 04:02:47;;;;;;;3.05;2.65;;;15.80;96.00;;;;;;4973321;28;20058;-79
2023/09/06 04:05:13;;;;;;;7.15;3.20;;;15.80;95.40;;;;;;4970462;28;20667;-78
2023/09/06 04:07:39;;;;;;;7.38;2.83;;;15.80;96.70;;;;;;4971239;28;20053;-77
2023/09/06 04:10:16;;;;;;;6.90;3.03;;;15.70;95.60;;;;;;4970877;28;20046;-78
2023/09/06 04:12:44;;;;;;;7.00;3.20;;;15.70;96.50;;;;;;4970352;28;20034;-78
2023/09/06 04:15:12;;;;;;;4.68;3.10;;;15.60;96.10;;;;;;4967944;28;20483;-78
2023/09/06 04:17:40;;;;;;;3.75;3.28;;;15.60;96.70;;;;;;4969560;28;20372;-78
2023/09/06 04:20:26;;;;;;;4.57;3.30;;;15.50;97.20;;;;;;4972070;28;20035;-78
2023/09/06 04:22:54;;;;;;;3.72;3.10;;;15.50;96.40;;;;;;4970242;28;20498;-78
2023/09/06 04:25:22;;;;;;;5.60;3.30;;;15.50;96.60;;;;;;4967210;28;20109;-78
2023/09/06 04:27:48;;;;;;;4.25;3.85;;;15.40;96.70;;;;;;4968569;28;20057;-78
2023/09/06 04:30:17;;;;;;;4.90;3.38;;;15.50;96.50;;;;;;4970685;28;20046;-78
2023/09/06 04:32:46;;;;;;;6.03;4.05;;;15.50;96.90;;;;;;4972116;28;20031;-77
2023/09/06 04:35:38;;;;;;;4.28;3.30;;;15.60;96.30;;;;;;4967279;28;20038;-77
2023/09/06 04:38:03;;;;;;;5.32;3.35;;;15.50;97.30;;;;;;4954706;28;20105;-77
2023/09/06 04:40:29;;;;;;;8.35;3.75;;;15.40;98.00;;;;;;4967869;28;20062;-79
2023/09/06 04:42:55;;;;;;;5.50;3.20;;;15.40;96.30;;;;;;4952151;28;20027;-79
2023/09/06 04:45:20;;;;;;;6.60;3.88;;;15.50;95.90;;;;;;4983828;28;20038;-78
2023/09/06 04:47:46;;;;;;;6.15;3.17;;;15.40;95.80;;;;;;4969301;28;20383;-77
2023/09/06 04:50:11;;;;;;;4.72;3.65;;;15.60;96.00;;;;;;4968653;28;20031;-77
2023/09/06 04:52:47;;;;;;;6.22;3.60;;;15.40;96.00;;;;;;4971791;28;20509;-78
2023/09/06 04:55:13;;;;;;;8.35;3.70;;;15.40;96.20;;;;;;4967209;28;20487;-78
2023/09/06 04:57:42;;;;;;;9.93;4.13;;;15.20;99.20;;;;;;4978720;28;20023;-78
2023/09/06 05:00:24;;;;;;;5.53;3.28;;;15.20;98.90;;;;;;4970586;28;20458;-77
2023/09/06 05:02:51;;;;;;;9.68;4.57;;;15.20;99.90;;;;;;4953579;28;20521;-78
2023/09/06 05:05:17;;;;;;;5.28;4.00;;;15.20;99.90;;;;;;4950684;28;20042;-77
2023/09/06 05:07:44;;;;;;;6.00;3.50;;;15.20;99.90;;;;;;4971544;28;20451;-77
2023/09/06 05:10:10;;;;;;;6.85;3.83;;;15.20;99.90;;;;;;4970908;28;20027;-77
2023/09/06 05:12:36;;;;;;;4.97;3.80;;;15.10;99.90;;;;;;4969493;28;20380;-77
2023/09/06 05:15:02;;;;;;;8.93;3.65;;;15.10;99.60;;;;;;4970918;28;20046;-78
2023/09/06 05:17:28;;;;;;;4.63;3.33;;;15.00;99.90;;;;;;4950429;28;20446;-77
2023/09/06 05:19:53;;;;;;;5.38;4.10;;;15.00;99.90;;;;;;4969729;28;20072;-77
2023/09/06 05:22:19;;;;;;;7.80;4.20;;;15.10;99.90;;;;;;4971756;28;20272;-80
2023/09/06 05:24:47;;;;;;;7.05;4.18;;;15.10;99.90;;;;;;4972221;28;20130;-77
2023/09/06 05:27:13;;;;;;;6.97;4.70;;;15.10;99.90;;;;;;4968134;28;20078;-78
2023/09/06 05:29:39;;;;;;;10.40;4.50;;;15.30;99.90;;;;;;4974914;28;20059;-77
2023/09/06 05:32:04;;;;;;;10.77;4.97;;;15.30;99.90;;;;;;4969914;28;20498;-78
2023/09/06 05:34:30;;;;;;;8.25;4.72;;;15.30;99.90;;;;;;4949995;28;20042;-78
2023/09/06 05:36:56;;;;;;;5.82;4.50;;;15.30;99.90;;;;;;4970342;28;20047;-78
2023/09/06 05:39:21;;;;;;;10.75;4.72;;;15.30;99.90;;;;;;4950665;28;20353;-78
2023/09/06 05:41:47;;;;;;;9.18;4.80;;;15.50;99.90;;;;;;4980569;28;20041;-78
2023/09/06 05:44:13;;;;;;;8.13;4.28;;;15.50;99.90;;;;;;4966521;28;20038;-78
2023/09/06 05:46:39;;;;;;;6.45;4.47;;;15.60;99.90;;;;;;4950232;28;20045;-79
2023/09/06 05:49:08;;;;;;;8.07;4.93;;;15.70;99.90;;;;;;4971191;28;20036;-78
2023/09/06 05:51:33;;;;;;;9.68;4.80;;;15.70;99.90;;;;;;4954678;28;20734;-78
2023/09/06 05:54:00;;;;;;;9.75;4.80;;;15.80;99.90;;;;;;4973436;28;20234;-80
2023/09/06 05:56:26;;;;;;;8.93;5.35;;;15.90;99.90;;;;;;4971947;28;20038;-78
2023/09/06 05:58:51;;;;;;;11.15;5.00;;;15.90;99.90;;;;;;4965627;28;21371;-78
2023/09/06 06:01:17;;;;;;;13.65;4.40;;;15.90;99.90;;;;;;4953111;28;20030;-78
2023/09/06 06:03:43;;;;;;;7.97;4.43;;;16.10;99.90;;;;;;4972111;28;20038;-77
2023/09/06 06:06:16;;;;;;;11.48;4.97;;;16.10;99.90;;;;;;4969403;28;20043;-78
2023/09/06 06:08:41;;;;;;;10.73;5.55;;;16.30;99.90;;;;;;4967145;28;20027;-78
2023/09/06 06:11:08;;;;;;;7.97;4.30;;;16.30;99.90;;;;;;4972387;28;20060;-78
2023/09/06 06:13:33;;;;;;;9.50;5.07;;;16.40;99.90;;;;;;4974815;28;20034;-78
2023/09/06 06:15:59;;;;;;;7.03;4.13;;;16.40;99.90;;;;;;4970777;28;20039;-78
2023/09/06 06:18:26;;;;;;;7.40;4.18;;;16.60;99.90;;;;;;4969408;28;20030;-78
2023/09/06 06:20:52;;;;;;;6.78;4.10;;;16.60;99.90;;;;;;4972148;28;20043;-78
2023/09/06 06:23:17;;;;;;;9.00;4.07;;;16.80;99.90;;;;;;4953681;28;20365;-78
2023/09/06 06:25:43;;;;;;;3.70;3.30;;;17.00;99.90;;;;;;4968201;28;20023;-78
2023/09/06 06:28:09;;;;;;;7.45;4.13;;;17.30;99.90;;;;;;4952891;28;20519;-78
2023/09/06 06:30:34;;;;;;;7.75;4.47;;;17.40;99.90;;;;;;4969925;28;20035;-78
2023/09/06 06:33:00;;;;;;;9.50;3.33;;;17.40;99.90;;;;;;4955381;28;20030;-78
2023/09/06 06:35:26;;;;;;;7.97;3.55;;;17.50;99.90;;;;;;4968755;28;20041;-79
2023/09/06 06:37:52;;;;;;;4.88;3.60;;;17.60;99.90;;;;;;4968287;28;20631;-78
2023/09/06 06:40:18;;;;;;;6.15;3.42;;;17.70;99.90;;;;;;4969233;28;20034;-79
2023/09/06 06:42:44;;;;;;;7.22;3.35;;;17.90;99.90;;;;;;4967936;28;20034;-78
2023/09/06 06:45:10;;;;;;;10.10;3.92;;;18.00;99.90;;;;;;4967829;28;20029;-79
2023/09/06 06:47:36;;;;;;;4.38;3.10;;;18.20;99.90;;;;;;4951701;28;20039;-78
2023/09/06 06:50:06;;;;;;;3.63;2.70;;;18.20;99.90;;;;;;4950976;28;20034;-78
2023/09/06 06:52:33;;;;;;;5.40;3.22;;;18.30;99.90;;;;;;4972270;28;20590;-79
2023/09/06 06:54:58;;;;;;;7.72;3.30;;;18.50;99.90;;;;;;4968935;28;20038;-78
2023/09/06 06:57:24;;;;;;;6.88;3.38;;;18.70;99.90;;;;;;4968792;28;20026;-78
2023/09/06 06:59:49;;;;;;;9.07;3.38;;;18.80;99.90;;;;;;4945499;28;20046;-78
2023/09/06 07:02:15;;;;;;;5.05;3.22;;;18.80;99.90;;;;;;4969917;28;20038;-79
2023/09/06 07:04:41;;;;;;;11.70;3.35;;;19.00;99.90;;;;;;4966075;28;20034;-79
2023/09/06 07:07:07;;;;;;;5.38;2.80;;;19.10;99.90;;;;;;4970548;28;20051;-78
2023/09/06 07:09:32;;;;;;;6.40;3.28;;;19.30;99.90;;;;;;4969393;28;20121;-78
2023/09/06 07:11:59;;;;;;;6.32;3.10;;;19.50;99.90;;;;;;4971391;28;20062;-78
2023/09/06 07:14:24;;;;;;;5.28;3.03;;;19.60;99.90;;;;;;4953789;28;20042;-78
2023/09/06 07:16:50;;;;;;;3.92;2.88;;;19.60;99.90;;;;;;4975297;28;20026;-78
2023/09/06 07:19:15;;;;;;;3.35;2.92;;;19.90;99.90;;;;;;4971138;28;20035;-78
2023/09/06 07:21:42;;;;;;;6.75;3.33;;;20.10;99.90;;;;;;4955214;28;20058;-78
2023/09/06 07:24:09;;;;;;;3.00;2.40;;;20.40;99.90;;;;;;4969505;28;20124;-78
2023/09/06 07:26:35;;;;;;;4.55;3.10;;;20.60;99.50;;;;;;4973764;28;20039;-78
2023/09/06 07:29:01;;;;;;;4.90;2.80;;;20.60;99.90;;;;;;4957035;28;20034;-79
2023/09/06 07:31:27;;;;;;;5.72;2.78;;;20.50;99.90;;;;;;4971184;28;20038;-78
2023/09/06 07:33:52;;;;;;;3.75;3.20;;;20.70;99.90;;;;;;4972729;28;20125;-78
2023/09/06 07:36:18;;;;;;;3.95;3.13;;;20.80;99.90;;;;;;4955460;28;20058;-79
2023/09/06 07:38:44;;;;;;;3.25;2.45;;;21.00;99.60;;;;;;4973948;28;20038;-81
2023/09/06 07:41:11;;;;;;;2.45;2.25;;;21.40;99.10;;;;;;4967564;28;20093;-79
2023/09/06 07:43:37;;;;;;;4.18;2.80;;;21.50;98.90;;;;;;4970848;28;20589;-78
2023/09/06 07:46:03;;;;;;;7.93;2.97;;;21.50;98.80;;;;;;4969114;28;20066;-78
2023/09/06 07:48:30;;;;;;;3.85;3.25;;;21.60;98.60;;;;;;4969324;28;20130;-78
2023/09/06 07:50:59;;;;;;;6.47;2.83;;;21.70;98.60;;;;;;4971216;28;20039;-79
2023/09/06 07:53:25;;;;;;;8.95;3.13;;;21.90;98.40;;;;;;4971512;28;20522;-78
2023/09/06 07:55:51;;;;;;;4.22;2.63;;;22.10;97.80;;;;;;4973860;28;20033;-78
2023/09/06 07:58:17;;;;;;;4.30;2.45;;;22.20;97.90;;;;;;4954891;28;20035;-79
2023/09/06 08:00:42;;;;;;;4.20;2.60;;;22.30;97.80;;;;;;4969964;28;20499;-78
2023/09/06 08:03:08;;;;;;;5.57;2.70;;;22.30;98.00;;;;;;4974442;28;20077;-79
2023/09/06 08:05:37;;;;;;;3.85;2.80;;;22.40;97.60;;;;;;4953808;28;20074;-78
2023/09/06 08:08:09;;;;;;;6.15;2.97;;;22.40;97.50;;;;;;4969369;28;20038;-79
2023/09/06 08:10:34;;;;;;;3.92;2.95;;;22.50;98.00;;;;;;4968918;28;20063;-79
2023/09/06 08:13:00;;;;;;;5.32;2.50;;;22.40;98.10;;;;;;4973088;28;20487;-78
2023/09/06 08:15:25;;;;;;;4.18;2.92;;;22.90;97.10;;;;;;4976111;28;20026;-78
2023/09/06 08:17:51;;;;;;;6.38;2.95;;;22.80;97.30;;;;;;4955036;28;20031;-78
2023/09/06 08:20:17;;;;;;;7.28;2.55;;;22.80;97.70;;;;;;4953738;28;20502;-79
2023/09/06 08:22:44;;;;;;;8.32;3.15;;;23.20;97.10;;;;;;4970904;28;20046;-78
2023/09/06 08:25:12;;;;;;;2.95;2.17;;;23.10;98.10;;;;;;4972190;28;20031;-79
2023/09/06 08:27:37;;;;;;;3.90;2.30;;;23.40;97.10;;;;;;5000648;28;20023;-78
2023/09/06 08:30:04;;;;;;;3.53;2.60;;;23.70;96.70;;;;;;4971291;28;20045;-79
2023/09/06 08:32:30;;;;;;;3.40;2.80;;;24.40;95.40;;;;;;4971355;28;20031;-79
2023/09/06 08:34:55;;;;;;;4.68;2.53;;;24.80;94.40;;;;;;4973930;28;20416;-79
2023/09/06 08:37:21;;;;;;;6.20;2.90;;;24.50;95.60;;;;;;4968576;28;20038;-79
2023/09/06 08:39:46;;;;;;;6.38;2.70;;;24.20;95.90;;;;;;4969536;28;20111;-79
2023/09/06 08:42:12;;;;;;;3.15;2.40;;;24.20;95.50;;;;;;4973644;28;20045;-79
2023/09/06 08:44:37;;;;;;;6.72;3.20;;;24.60;95.50;;;;;;4971424;28;20035;-79
2023/09/06 08:47:05;;;;;;;2.83;2.55;;;25.20;94.80;;;;;;4966876;28;20070;-79
2023/09/06 08:49:31;;;;;;;3.53;2.90;;;25.60;93.50;;;;;;4956846;28;20035;-79
2023/09/06 08:51:58;;;;;;;4.13;3.25;;;25.70;93.60;;;;;;4968431;28;20030;-79
2023/09/06 08:54:23;;;;;;;4.28;2.90;;;24.90;94.20;;;;;;4969596;28;20499;-80
2023/09/06 08:56:50;;;;;;;3.90;2.90;;;24.90;95.00;;;;;;4971757;28;20050;-79
2023/09/06 08:59:16;;;;;;;4.70;3.65;;;25.60;94.00;;;;;;4968336;28;20050;-78
2023/09/06 09:01:42;;;;;;;4.13;2.95;;;25.90;93.50;;;;;;4968610;28;20039;-79
2023/09/06 09:04:09;;;;;;;5.43;3.28;;;26.40;92.40;;;;;;4968875;28;20406;-79
2023/09/06 09:06:34;;;;;;;7.22;2.70;;;27.30;91.10;;;;;;4968424;28;20925;-79
2023/09/06 09:09:18;;;;;;;5.20;2.85;;;27.10;91.70;;;;;;4952712;28;20125;-78
2023/09/06 09:11:45;;;;;;;5.55;3.05;;;26.90;91.70;;;;;;4952070;28;20399;-79
2023/09/06 09:14:24;;;;;;;6.10;3.33;;;26.80;90.80;;;;;;4969929;28;20652;-78
2023/09/06 09:16:57;;;;;;;4.05;3.10;;;27.00;91.80;;;;;;4950652;28;20122;-79
2023/09/06 09:19:23;;;;;;;4.28;3.13;;;27.20;91.80;;;;;;4997551;28;20564;-78
2023/09/06 09:21:52;;;;;;;4.97;3.33;;;26.80;92.60;;;;;;4968953;28;20046;-78
2023/09/06 09:24:30;;;;;;;5.80;3.67;;;26.40;92.40;;;;;;4968382;28;20415;-79
2023/09/06 09:26:58;;;;;;;4.80;3.40;;;26.70;92.70;;;;;;4965421;28;20644;-79
2023/09/06 09:29:25;;;;;;;4.80;3.00;;;26.10;92.90;;;;;;4975366;28;20486;-79
2023/09/06 09:31:50;;;;;;;5.55;3.13;;;26.90;92.40;;;;;;4952739;28;20062;-79
2023/09/06 09:34:16;;;;;;;4.20;2.83;;;26.80;92.80;;;;;;4971104;28;20054;-78
2023/09/06 09:36:49;;;;;;;4.07;3.58;;;26.60;92.70;;;;;;4971085;28;20455;-79
2023/09/06 09:39:15;;;;;;;6.72;3.40;;;27.40;92.20;;;;;;4973379;28;20034;-80
2023/09/06 09:41:43;;;;;;;5.68;3.22;;;27.90;91.40;;;;;;4970506;28;20073;-80
2023/09/06 09:44:15;;;;;;;3.83;2.97;;;28.10;92.10;;;;;;4936874;28;20532;-79
2023/09/06 09:46:44;;;;;;;4.32;3.40;;;28.80;88.50;;;;;;4963892;28;20039;-80
2023/09/06 09:49:10;;;;;;;6.88;3.50;;;28.20;89.40;;;;;;4979939;28;20035;-80
2023/09/06 09:51:36;;;;;;;5.25;3.33;;;28.30;90.20;;;;;;4959131;28;20056;-80
2023/09/06 09:54:04;;;;;;;4.32;3.08;;;27.80;90.60;;;;;;4971603;28;20038;-80
2023/09/06 09:56:29;;;;;;;5.63;3.67;;;27.70;91.60;;;;;;4953589;28;20042;-80
2023/09/06 09:58:55;;;;;;;6.22;3.22;;;27.70;91.90;;;;;;4972716;28;20051;-80
2023/09/06 10:01:22;;;;;;;6.05;3.85;;;27.50;91.60;;;;;;4972182;28;20058;-80
2023/09/06 10:03:49;;;;;;;3.92;3.33;;;27.30;91.90;;;;;;4975852;28;20068;-82
2023/09/06 10:06:16;;;;;;;3.67;2.83;;;28.40;89.60;;;;;;4968723;28;20066;-81
2023/09/06 10:08:41;;;;;;;4.75;3.88;;;28.00;90.50;;;;;;4954288;28;20410;-81
2023/09/06 10:11:07;;;;;;;5.75;2.97;;;28.20;91.00;;;;;;4967813;28;20027;-81
2023/09/06 10:13:34;;;;;;;4.32;3.22;;;28.30;90.90;;;;;;4955517;28;20035;-81
2023/09/06 10:15:59;;;;;;;4.88;3.13;;;28.40;90.20;;;;;;4970835;28;20490;-81
2023/09/06 10:18:25;;;;;;;5.75;3.25;;;28.90;90.90;;;;;;4972901;28;20092;-80
2023/09/06 10:20:50;;;;;;;5.43;3.13;;;28.50;90.10;;;;;;4972652;28;20026;-80
2023/09/06 10:23:17;;;;;;;2.97;2.53;;;28.70;90.10;;;;;;4968568;28;20031;-82
2023/09/06 10:25:49;;;;;;;4.70;2.95;;;28.70;90.00;;;;;;4964689;28;20036;-81
2023/09/06 10:28:14;;;;;;;4.07;3.28;;;29.50;88.20;;;;;;4968667;28;20101;-81
2023/09/06 10:30:44;;;;;;;4.18;3.30;;;29.90;86.10;;;;;;4971139;28;20087;-81
2023/09/06 10:33:31;;;;;;;7.40;3.83;;;30.20;85.30;;;;;;4974013;28;20454;-81
2023/09/06 10:35:57;;;;;;;6.25;3.33;;;30.30;82.70;;;;;;4988121;28;20410;-81
2023/09/06 10:38:23;;;;;;;4.78;3.78;;;29.90;82.80;;;;;;4971738;28;20038;-81
2023/09/06 10:40:51;;;;;;;3.85;3.20;;;30.00;84.40;;;;;;4968066;28;20474;-80
2023/09/06 10:43:17;;;;;;;3.40;3.05;;;29.50;86.30;;;;;;4971369;28;20085;-80
2023/09/06 10:45:55;;;;;;;5.05;3.08;;;30.90;80.40;;;;;;4973710;28;20196;-80
2023/09/06 10:48:21;;;;;;;3.75;3.10;;;30.90;82.20;;;;;;4975018;28;20038;-82
2023/09/06 10:51:12;;;;;;;4.97;3.25;;;31.60;77.50;;;;;;4973083;28;20031;-80
2023/09/06 10:53:47;;;;;;;3.33;2.88;;;31.20;77.50;;;;;;4960853;28;20399;-83
2023/09/06 10:56:13;;;;;;;3.95;3.05;;;31.00;78.80;;;;;;4956679;28;20514;-79
2023/09/06 10:58:38;;;;;;;3.53;3.22;;;31.30;79.70;;;;;;4954229;28;20089;-80
2023/09/06 11:01:18;;;;;;;4.63;3.15;;;31.40;79.30;;;;;;4957087;28;20030;-82
2023/09/06 11:03:47;;;;;;;3.75;3.00;;;32.20;76.70;;;;;;4971585;28;20619;-82
2023/09/06 11:06:12;;;;;;;3.35;3.03;;;32.40;75.00;;;;;;4974193;28;20038;-81
2023/09/06 11:08:38;;;;;;;4.03;3.13;;;33.10;73.50;;;;;;4970294;28;20037;-81
2023/09/06 11:11:09;;;;;;;3.25;2.80;;;32.40;74.70;;;;;;4976201;28;20038;-81
2023/09/06 11:13:37;;;;;;;4.13;3.05;;;32.80;73.70;;;;;;4955871;28;20034;-81
2023/09/06 11:16:03;;;;;;;4.18;2.70;;;33.40;70.40;;;;;;4972578;28;20050;-81
2023/09/06 11:18:30;;;;;;;3.60;2.97;;;33.90;67.10;;;;;;4959165;28;20061;-80
2023/09/06 11:20:56;;;;;;;4.97;3.15;;;33.90;69.10;;;;;;4971869;28;20498;-80
2023/09/06 11:23:22;;;;;;;3.75;3.28;;;33.00;72.80;;;;;;4974727;28;20033;-81
2023/09/06 11:25:53;;;;;;;4.47;3.13;;;32.70;72.60;;;;;;4974045;28;20477;-80
2023/09/06 11:28:19;;;;;;;3.25;2.83;;;32.10;76.00;;;;;;4970595;28;20039;-81
2023/09/06 11:30:46;;;;;;;3.30;2.97;;;31.40;77.30;;;;;;4967661;28;20506;-80
2023/09/06 11:33:15;;;;;;;3.33;2.80;;;30.90;78.60;;;;;;4975023;28;20425;-80
2023/09/06 11:35:56;;;;;;;3.83;2.92;;;32.40;73.60;;;;;;4960454;28;20035;-79
2023/09/06 11:38:28;;;;;;;3.47;3.17;;;33.20;72.90;;;;;;4972109;28;20030;-79
2023/09/06 11:40:57;;;;;;;3.75;2.83;;;32.80;73.40;;;;;;4973440;28;20278;-80
2023/09/06 11:43:24;;;;;;;3.47;2.88;;;34.10;66.30;;;;;;4974908;28;20034;-79
2023/09/06 11:45:53;;;;;;;2.60;2.40;;;34.50;66.10;;;;;;4969679;28;20454;-80
2023/09/06 11:48:25;;;;;;;3.85;2.90;;;35.00;63.80;;;;;;4970217;28;20974;-80
2023/09/06 11:50:58;;;;;;;3.03;2.67;;;35.40;65.00;;;;;;4967997;28;20395;-80
2023/09/06 11:53:25;;;;;;;3.25;2.78;;;34.30;67.40;;;;;;4970278;28;20432;-80
2023/09/06 11:55:52;;;;;;;3.28;2.72;;;35.00;65.10;;;;;;4976578;28;20027;-80
2023/09/06 11:58:18;;;;;;;3.67;2.55;;;34.10;69.00;;;;;;5003803;28;20164;-80
2023/09/06 12:00:47;;;;;;;4.65;3.03;;;33.30;70.20;;;;;;4971619;28;20162;-79
2023/09/06 12:03:15;;;;;;;3.80;2.63;;;33.70;69.30;;;;;;4952620;28;20059;-79
2023/09/06 12:05:45;;;;;;;3.47;2.60;;;34.40;67.60;;;;;;4968802;28;20023;-79
2023/09/06 12:08:15;;;;;;;2.67;2.47;;;33.80;69.20;;;;;;4969172;28;20055;-80
2023/09/06 12:10:43;;;;;;;4.57;2.40;;;34.10;69.00;;;;;;4970332;28;20182;-79
2023/09/06 12:13:09;;;;;;;2.40;2.20;;;34.20;66.20;;;;;;4971518;28;20054;-79
2023/09/06 12:15:34;;;;;;;2.60;2.30;;;34.20;66.90;;;;;;4969131;28;20042;-79
2023/09/06 12:18:03;;;;;;;2.90;2.40;;;33.40;70.20;;;;;;4975528;28;20023;-80
2023/09/06 12:20:29;;;;;;;2.55;2.35;;;33.50;68.50;;;;;;4973607;28;20041;-79
2023/09/06 12:22:55;;;;;;;2.53;2.33;;;34.40;65.60;;;;;;4970179;28;20038;-80
2023/09/06 12:25:21;;;;;;;3.78;2.67;;;34.90;64.00;;;;;;4972842;28;20038;-79
2023/09/06 12:27:49;;;;;;;4.35;2.53;;;34.50;66.10;;;;;;4972337;28;20031;-79
2023/09/06 12:30:18;;;;;;;5.10;2.70;;;34.80;63.60;;;;;;4970923;28;20042;-80
2023/09/06 12:32:44;;;;;;;2.78;2.58;;;35.60;62.00;;;;;;4974115;28;20034;-79
2023/09/06 12:35:10;;;;;;;2.33;1.90;;;36.00;58.60;;;;;;4975269;28;20086;-80
2023/09/06 12:37:36;;;;;;;3.53;2.25;;;36.70;59.30;;;;;;4973367;28;20378;-79
2023/09/06 12:40:13;;;;;;;2.80;2.40;;;36.00;61.00;;;;;;4979650;28;20042;-79
2023/09/06 12:42:45;;;;;;;3.92;2.53;;;36.00;60.70;;;;;;4968433;28;20035;-79
2023/09/06 12:45:26;;;;;;;2.60;2.40;;;35.80;62.00;;;;;;4972617;28;20509;-79
2023/09/06 12:47:53;;;;;;;3.42;2.70;;;34.30;67.20;;;;;;4973475;28;20431;-80